createdAt,value
2018-09-06T00:02:12.906Z,14.39
2018-09-06T00:05:17.790Z,14.27
2018-09-06T00:08:23.171Z,14.32
2018-09-06T00:11:28.101Z,14.21
2018-09-06T00:14:33.166Z,14.26
2018-09-06T00:17:38.061Z,14.09
2018-09-06T00:20:42.988Z,14.11
2018-09-06T00:23:47.871Z,14.07
2018-09-06T00:26:52.794Z,14.07
2018-09-06T00:29:57.701Z,13.96
2018-09-06T00:33:02.554Z,13.94
2018-09-06T00:36:07.491Z,13.92
2018-09-06T00:39:12.340Z,13.86
2018-09-06T00:42:17.286Z,13.79
2018-09-06T00:45:22.391Z,13.73
2018-09-06T00:48:27.293Z,13.81
2018-09-06T00:51:32.326Z,13.72
2018-09-06T00:54:37.331Z,13.65
2018-09-06T00:57:42.355Z,13.80
2018-09-06T01:00:47.257Z,13.67
2018-09-06T01:03:52.287Z,13.62
2018-09-06T01:06:57.210Z,13.63
2018-09-06T01:10:02.387Z,13.52
2018-09-06T01:13:07.357Z,13.55
2018-09-06T01:16:12.193Z,13.46
2018-09-06T01:19:17.149Z,13.43
2018-09-06T01:22:22.092Z,13.41
2018-09-06T01:25:31.023Z,13.40
2018-09-06T01:28:35.905Z,13.31
2018-09-06T01:31:40.740Z,13.37
2018-09-06T01:34:45.652Z,13.39
2018-09-06T01:37:50.647Z,13.53
2018-09-06T01:40:55.524Z,13.36
2018-09-06T01:44:00.409Z,13.27
2018-09-06T01:47:05.295Z,13.24
2018-09-06T01:50:10.284Z,13.16
2018-09-06T01:53:15.152Z,13.15
2018-09-06T01:56:20.052Z,13.12
2018-09-06T01:59:24.956Z,13.14
2018-09-06T02:02:29.787Z,13.06
2018-09-06T02:05:36.765Z,13.11
2018-09-06T02:08:42.256Z,13.09
2018-09-06T02:11:47.060Z,13.17
2018-09-06T02:14:51.955Z,13.02
2018-09-06T02:17:56.715Z,13.00
2018-09-06T02:21:01.885Z,12.86
2018-09-06T02:24:06.855Z,12.95
2018-09-06T02:27:11.853Z,12.94
2018-09-06T02:30:16.862Z,12.85
2018-09-06T02:33:21.765Z,12.77
2018-09-06T02:36:26.682Z,12.73
2018-09-06T02:39:31.557Z,12.73
2018-09-06T02:42:36.454Z,12.69
2018-09-06T02:45:42.530Z,12.62
2018-09-06T02:48:47.449Z,12.58
2018-09-06T02:51:52.371Z,12.59
2018-09-06T02:54:57.320Z,12.56
2018-09-06T02:58:02.277Z,12.57
2018-09-06T03:01:07.315Z,12.57
2018-09-06T03:04:12.222Z,12.52
2018-09-06T03:07:17.051Z,12.51
2018-09-06T03:10:22.657Z,12.52
2018-09-06T03:13:27.479Z,12.48
2018-09-06T03:16:32.412Z,12.47
2018-09-06T03:19:37.201Z,12.42
2018-09-06T03:22:42.040Z,12.50
2018-09-06T03:25:46.949Z,12.41
2018-09-06T03:28:51.932Z,12.40
2018-09-06T03:31:56.909Z,12.34
2018-09-06T03:35:01.774Z,12.22
2018-09-06T03:38:06.610Z,12.21
2018-09-06T03:41:11.540Z,12.22
2018-09-06T03:44:16.412Z,12.18
2018-09-06T03:47:21.232Z,12.12
2018-09-06T03:50:26.149Z,12.14
2018-09-06T03:53:31.014Z,12.13
2018-09-06T03:56:35.855Z,12.15
2018-09-06T03:59:40.737Z,12.16
2018-09-06T04:02:45.676Z,12.27
2018-09-06T04:05:50.624Z,12.24
2018-09-06T04:08:55.507Z,12.14
2018-09-06T04:12:00.419Z,12.10
2018-09-06T04:15:05.513Z,12.11
2018-09-06T04:18:10.422Z,12.10
2018-09-06T04:21:15.227Z,12.12
2018-09-06T04:24:20.151Z,12.04
2018-09-06T04:27:25.020Z,11.96
2018-09-06T04:30:29.871Z,11.92
2018-09-06T04:33:34.800Z,11.91
2018-09-06T04:36:39.703Z,11.89
2018-09-06T04:39:44.602Z,11.89
2018-09-06T04:42:49.441Z,11.91
2018-09-06T04:45:54.290Z,11.97
2018-09-06T04:48:59.060Z,11.98
2018-09-06T04:52:04.039Z,11.98
2018-09-06T04:55:09.035Z,12.07
2018-09-06T04:58:13.813Z,12.10
2018-09-06T05:01:18.655Z,12.12
2018-09-06T05:04:23.567Z,12.20
2018-09-06T05:07:28.392Z,12.35
2018-09-06T05:10:33.294Z,12.63
2018-09-06T05:13:38.179Z,12.87
2018-09-06T05:16:43.055Z,13.08
2018-09-06T05:19:47.937Z,13.37
2018-09-06T05:22:52.711Z,13.69
2018-09-06T05:25:57.632Z,13.80
2018-09-06T05:29:02.556Z,13.91
2018-09-06T05:32:07.611Z,14.09
2018-09-06T05:35:12.483Z,14.11
2018-09-06T05:38:17.414Z,14.27
2018-09-06T05:41:22.373Z,14.36
2018-09-06T05:44:27.264Z,14.57
2018-09-06T05:47:32.191Z,14.80
2018-09-06T05:50:37.000Z,14.78
2018-09-06T05:53:41.871Z,14.87
2018-09-06T05:56:46.798Z,14.93
2018-09-06T05:59:51.698Z,15.27
2018-09-06T06:02:58.453Z,15.49
2018-09-06T06:06:03.610Z,15.36
2018-09-06T06:09:09.875Z,15.61
2018-09-06T06:12:14.768Z,15.75
2018-09-06T06:15:19.676Z,16.05
2018-09-06T06:18:24.545Z,16.29
2018-09-06T06:21:29.394Z,16.42
2018-09-06T06:24:34.280Z,16.14
2018-09-06T06:27:39.095Z,16.37
2018-09-06T06:30:43.986Z,16.79
2018-09-06T06:33:48.781Z,16.84
2018-09-06T06:36:53.665Z,16.91
2018-09-06T06:39:58.567Z,17.06
2018-09-06T06:43:03.374Z,16.91
2018-09-06T06:46:08.224Z,17.28
2018-09-06T06:49:13.040Z,17.18
2018-09-06T06:52:17.984Z,17.37
2018-09-06T06:55:22.896Z,17.24
2018-09-06T06:58:27.787Z,17.32
2018-09-06T07:01:32.670Z,17.45
2018-09-06T07:04:37.529Z,17.23
2018-09-06T07:07:42.448Z,18.35
2018-09-06T07:10:47.259Z,18.53
2018-09-06T07:13:52.151Z,18.27
2018-09-06T07:16:57.108Z,18.36
2018-09-06T07:20:02.069Z,18.30
2018-09-06T07:23:06.997Z,18.70
2018-09-06T07:26:11.900Z,19.15
2018-09-06T07:29:16.734Z,19.66
2018-09-06T07:32:21.723Z,20.21
2018-09-06T07:35:27.556Z,19.74
2018-09-06T07:38:32.516Z,19.44
2018-09-06T07:41:37.806Z,19.21
2018-09-06T07:44:42.695Z,20.14
2018-09-06T07:47:47.581Z,20.37
2018-09-06T07:50:52.402Z,20.57
2018-09-06T07:53:57.773Z,20.82
2018-09-06T07:57:02.798Z,20.72
2018-09-06T08:00:08.092Z,21.44
2018-09-06T08:03:13.501Z,21.49
2018-09-06T08:06:18.418Z,22.01
2018-09-06T08:09:23.283Z,21.90
2018-09-06T08:12:28.137Z,22.21
2018-09-06T08:15:33.018Z,22.69
2018-09-06T08:18:37.944Z,22.20
2018-09-06T08:21:42.862Z,22.70
2018-09-06T08:24:47.876Z,22.18
2018-09-06T08:27:52.793Z,21.68
2018-09-06T08:30:57.789Z,22.44
2018-09-06T08:34:02.628Z,22.95
2018-09-06T08:37:07.535Z,23.23
2018-09-06T08:40:12.376Z,23.45
2018-09-06T08:43:17.253Z,22.36
2018-09-06T08:46:22.138Z,23.10
2018-09-06T08:49:26.972Z,23.11
2018-09-06T08:52:31.917Z,23.79
2018-09-06T08:55:36.910Z,23.71
2018-09-06T08:58:41.846Z,23.63
2018-09-06T09:01:46.721Z,23.75
2018-09-06T09:04:51.804Z,23.86
2018-09-06T09:07:56.893Z,23.82
2018-09-06T09:11:01.859Z,23.72
2018-09-06T09:14:06.772Z,24.28
2018-09-06T09:17:11.745Z,24.45
2018-09-06T09:20:16.750Z,24.99
2018-09-06T09:23:21.664Z,24.30
2018-09-06T09:26:26.693Z,24.85
2018-09-06T09:29:31.572Z,24.80
2018-09-06T09:32:36.557Z,25.14
2018-09-06T09:35:41.778Z,24.97
2018-09-06T09:38:46.685Z,25.54
2018-09-06T09:41:51.650Z,25.41
2018-09-06T09:44:56.561Z,25.77
2018-09-06T09:48:01.474Z,26.31
2018-09-06T09:51:06.505Z,26.36
2018-09-06T09:54:11.505Z,26.13
2018-09-06T09:57:16.448Z,26.75
2018-09-06T10:00:25.333Z,25.84
2018-09-06T10:03:35.263Z,25.76
2018-09-06T10:06:45.402Z,26.38
2018-09-06T10:09:50.335Z,26.58
2018-09-06T10:12:55.338Z,26.75
2018-09-06T10:16:00.260Z,26.71
2018-09-06T10:19:05.224Z,26.44
2018-09-06T10:22:10.164Z,26.89
2018-09-06T10:25:15.107Z,26.87
2018-09-06T10:28:20.132Z,27.70
2018-09-06T10:31:25.129Z,27.32
2018-09-06T10:34:30.018Z,27.76
2018-09-06T10:37:34.940Z,27.58
2018-09-06T10:40:40.129Z,27.18
2018-09-06T10:43:45.189Z,27.41
2018-09-06T10:46:51.133Z,27.41
2018-09-06T10:49:56.051Z,26.77
2018-09-06T10:53:02.206Z,26.56
2018-09-06T10:56:07.174Z,26.71
2018-09-06T10:59:12.301Z,26.99
2018-09-06T11:02:17.467Z,27.28
2018-09-06T11:05:22.409Z,27.18
2018-09-06T11:08:28.276Z,27.47
2018-09-06T11:11:33.192Z,27.99
2018-09-06T11:14:38.035Z,27.76
2018-09-06T11:17:42.956Z,27.62
2018-09-06T11:20:47.907Z,27.29
2018-09-06T11:23:52.773Z,27.60
2018-09-06T11:26:58.607Z,28.51
2018-09-06T11:30:03.723Z,29.35
2018-09-06T11:33:08.796Z,29.69
2018-09-06T11:36:14.045Z,30.16
2018-09-06T11:39:19.109Z,30.11
2018-09-06T11:42:24.049Z,30.77
2018-09-06T11:45:28.870Z,30.46
2018-09-06T11:48:33.728Z,30.85
2018-09-06T11:51:38.778Z,30.53
2018-09-06T11:54:43.789Z,30.06
2018-09-06T11:57:48.783Z,30.05
2018-09-06T12:00:53.725Z,30.29
2018-09-06T12:03:58.837Z,29.87
2018-09-06T12:07:03.823Z,29.18
2018-09-06T12:10:08.825Z,28.58
2018-09-06T12:13:13.822Z,28.43
2018-09-06T12:16:18.746Z,28.02
2018-09-06T12:19:23.758Z,27.29
2018-09-06T12:22:29.021Z,26.69
2018-09-06T12:25:33.924Z,26.33
2018-09-06T12:28:38.898Z,26.20
2018-09-06T12:31:43.888Z,26.19
2018-09-06T12:34:48.933Z,25.73
2018-09-06T12:37:53.902Z,25.28
2018-09-06T12:40:58.868Z,24.97
2018-09-06T12:44:04.021Z,24.75
2018-09-06T12:47:09.120Z,24.84
2018-09-06T12:50:14.112Z,25.27
2018-09-06T12:53:19.061Z,25.51
2018-09-06T12:56:23.918Z,25.58
2018-09-06T12:59:28.902Z,25.72
2018-09-06T13:02:33.986Z,25.94
2018-09-06T13:05:38.903Z,26.16
2018-09-06T13:08:44.250Z,26.14
2018-09-06T13:11:49.183Z,25.29
2018-09-06T13:14:54.153Z,25.07
2018-09-06T13:17:59.085Z,24.38
2018-09-06T13:21:04.272Z,24.16
2018-09-06T13:24:09.134Z,24.26
2018-09-06T13:27:14.186Z,24.18
2018-09-06T13:30:22.457Z,24.32
2018-09-06T13:33:27.591Z,24.51
2018-09-06T13:36:32.599Z,24.65
2018-09-06T13:39:37.577Z,24.81
2018-09-06T13:42:48.522Z,25.27
2018-09-06T13:45:53.470Z,25.61
2018-09-06T13:48:58.546Z,25.37
2018-09-06T13:52:03.381Z,26.15
2018-09-06T13:55:08.334Z,26.18
2018-09-06T13:58:13.342Z,26.52
2018-09-06T14:01:18.270Z,26.97
2018-09-06T14:04:23.179Z,26.85
2018-09-06T14:07:28.171Z,27.14
2018-09-06T14:10:32.962Z,27.28
2018-09-06T14:13:37.994Z,27.49
2018-09-06T14:16:42.955Z,27.31
2018-09-06T14:19:47.885Z,27.26
2018-09-06T14:22:52.804Z,26.97
2018-09-06T14:25:57.900Z,26.15
2018-09-06T14:29:02.826Z,25.68
2018-09-06T14:32:07.773Z,25.60
2018-09-06T14:35:12.735Z,25.42
2018-09-06T14:38:17.594Z,25.43
2018-09-06T14:41:22.521Z,25.31
2018-09-06T14:44:27.474Z,25.39
2018-09-06T14:47:32.434Z,25.73
2018-09-06T14:50:37.340Z,25.57
2018-09-06T14:53:42.273Z,25.52
2018-09-06T14:56:47.178Z,25.42
2018-09-06T14:59:52.088Z,25.81
2018-09-06T15:02:57.148Z,26.02
2018-09-06T15:06:02.031Z,26.01
2018-09-06T15:09:09.084Z,25.66
2018-09-06T15:12:14.047Z,25.85
2018-09-06T15:15:18.996Z,26.26
2018-09-06T15:18:24.090Z,25.87
2018-09-06T15:21:29.796Z,25.74
2018-09-06T15:24:34.741Z,26.06
2018-09-06T15:27:39.848Z,26.24
2018-09-06T15:30:44.708Z,26.15
2018-09-06T15:33:49.598Z,25.64
2018-09-06T15:36:54.567Z,25.87
2018-09-06T15:39:59.466Z,25.58
2018-09-06T15:43:04.403Z,25.37
2018-09-06T15:46:09.420Z,25.28
2018-09-06T15:49:14.415Z,25.05
2018-09-06T15:52:19.356Z,24.87
2018-09-06T15:55:24.647Z,24.92
2018-09-06T15:58:29.515Z,24.67
2018-09-06T16:01:34.569Z,24.48
2018-09-06T16:04:39.613Z,24.43
2018-09-06T16:07:44.639Z,24.31
2018-09-06T16:10:49.572Z,24.21
2018-09-06T16:13:54.646Z,24.22
2018-09-06T16:16:59.500Z,24.06
2018-09-06T16:20:04.445Z,23.87
2018-09-06T16:23:09.319Z,23.61
2018-09-06T16:26:14.214Z,23.40
2018-09-06T16:29:19.137Z,23.07
2018-09-06T16:32:24.030Z,22.99
2018-09-06T16:35:28.930Z,22.91
2018-09-06T16:38:33.891Z,22.81
2018-09-06T16:41:38.897Z,22.75
2018-09-06T16:44:43.759Z,22.64
2018-09-06T16:47:48.678Z,22.50
2018-09-06T16:50:53.877Z,22.39
2018-09-06T16:53:58.861Z,22.02
2018-09-06T16:57:03.865Z,21.70
2018-09-06T17:00:08.885Z,21.64
2018-09-06T17:03:13.828Z,21.57
2018-09-06T17:09:22.763Z,21.35
2018-09-06T17:12:27.987Z,20.73
2018-09-06T17:15:32.875Z,20.18
2018-09-06T17:18:38.100Z,19.81
2018-09-06T17:21:43.093Z,19.49
2018-09-06T17:24:48.043Z,19.34
2018-09-06T17:27:52.990Z,19.14
2018-09-06T17:30:58.061Z,18.96
2018-09-06T17:34:03.037Z,18.99
2018-09-06T17:37:08.014Z,18.94
2018-09-06T17:40:12.936Z,18.81
2018-09-06T17:43:17.936Z,18.69
2018-09-06T17:46:22.966Z,18.67
2018-09-06T17:49:28.011Z,18.54
2018-09-06T17:52:33.919Z,18.36
2018-09-06T17:55:38.924Z,18.27
2018-09-06T17:58:43.968Z,18.22
2018-09-06T18:01:49.088Z,18.24
2018-09-06T18:04:54.166Z,18.17
2018-09-06T18:07:59.240Z,18.16
2018-09-06T18:11:04.665Z,18.09
2018-09-06T18:14:09.792Z,18.21
2018-09-06T18:17:14.742Z,18.10
2018-09-06T18:20:19.857Z,18.09
2018-09-06T18:23:25.900Z,18.11
2018-09-06T18:26:30.931Z,17.97
2018-09-06T18:29:36.863Z,18.04
2018-09-06T18:32:42.211Z,17.88
2018-09-06T18:35:47.278Z,17.96
2018-09-06T18:38:53.510Z,17.97
2018-09-06T18:41:59.515Z,17.99
2018-09-06T18:45:04.722Z,17.90
2018-09-06T18:48:09.768Z,17.78
2018-09-06T18:51:14.828Z,17.68
2018-09-06T18:54:19.859Z,17.64
2018-09-06T18:57:25.158Z,17.72
2018-09-06T19:00:30.175Z,17.85
2018-09-06T19:03:35.134Z,17.83
2018-09-06T19:06:40.869Z,17.89
2018-09-06T19:09:45.937Z,18.02
2018-09-06T19:12:50.874Z,17.97
2018-09-06T19:16:01.371Z,17.90
2018-09-06T19:19:07.802Z,17.83
2018-09-06T19:22:12.646Z,17.83
2018-09-06T19:25:17.674Z,17.81
2018-09-06T19:28:22.678Z,17.84
2018-09-06T19:31:27.680Z,17.93
2018-09-06T19:34:32.899Z,17.86
2018-09-06T19:37:38.051Z,17.81
2018-09-06T19:40:43.278Z,17.87
2018-09-06T19:43:48.317Z,17.83
2018-09-06T19:46:53.422Z,17.73
2018-09-06T19:49:58.533Z,17.79
2018-09-06T19:53:03.652Z,17.78
2018-09-06T19:56:08.645Z,17.66
2018-09-06T19:59:13.578Z,17.66
2018-09-06T20:02:18.686Z,17.50
2018-09-06T20:05:23.679Z,17.34
2018-09-06T20:08:28.747Z,17.45
2018-09-06T20:11:33.681Z,17.40
2018-09-06T20:14:38.873Z,17.39
2018-09-06T20:17:43.912Z,17.43
2018-09-06T20:20:49.076Z,17.61
2018-09-06T20:23:54.006Z,17.66
2018-09-06T20:26:58.983Z,17.64
2018-09-06T20:30:04.065Z,17.85
2018-09-06T20:33:09.076Z,17.75
2018-09-06T20:36:14.027Z,17.75
2018-09-06T20:39:18.973Z,17.74
2018-09-06T20:42:24.251Z,17.74
2018-09-06T20:45:29.133Z,17.73
2018-09-06T20:48:34.233Z,18.01
2018-09-06T20:51:39.128Z,17.99
2018-09-06T20:54:46.634Z,17.87
2018-09-06T20:57:52.956Z,17.85
2018-09-06T21:00:58.091Z,17.79
2018-09-06T21:04:03.146Z,17.75
2018-09-06T21:07:08.135Z,17.82
2018-09-06T21:10:13.164Z,17.77
2018-09-06T21:13:18.156Z,17.74
2018-09-06T21:16:23.275Z,17.81
2018-09-06T21:19:28.262Z,17.85
2018-09-06T21:22:33.272Z,17.81
2018-09-06T21:25:38.267Z,17.75
2018-09-06T21:28:43.208Z,17.80
2018-09-06T21:31:48.218Z,17.86
2018-09-06T21:34:53.425Z,17.84
2018-09-06T21:37:58.317Z,17.75
2018-09-06T21:41:03.203Z,17.73
2018-09-06T21:44:08.616Z,17.66
2018-09-06T21:47:14.002Z,17.57
2018-09-06T21:50:18.932Z,17.49
2018-09-06T21:53:24.024Z,17.42
2018-09-06T21:56:29.182Z,17.45
2018-09-06T21:59:34.324Z,17.46
2018-09-06T22:02:44.158Z,17.41
2018-09-06T22:05:49.316Z,17.41
2018-09-06T22:08:54.358Z,17.36
2018-09-06T22:11:59.266Z,17.40
2018-09-06T22:15:04.381Z,17.28
2018-09-06T22:18:10.150Z,17.41
2018-09-06T22:21:15.363Z,17.35
2018-09-06T22:24:20.327Z,17.33
2018-09-06T22:27:25.307Z,17.27
2018-09-06T22:30:30.231Z,17.23
2018-09-06T22:33:35.375Z,17.23
2018-09-06T22:36:40.287Z,17.27
2018-09-06T22:39:45.258Z,17.24
2018-09-06T22:42:50.241Z,17.25
2018-09-06T22:45:55.858Z,17.27
2018-09-06T22:49:00.876Z,17.27
2018-09-06T22:52:06.276Z,17.22
2018-09-06T22:55:11.305Z,17.19
2018-09-06T22:58:16.331Z,17.22
2018-09-06T23:01:21.193Z,17.13
2018-09-06T23:04:26.191Z,17.11
2018-09-06T23:07:31.086Z,17.13
2018-09-06T23:10:36.275Z,17.08
2018-09-06T23:13:41.292Z,17.02
2018-09-06T23:16:46.237Z,17.10
2018-09-06T23:19:51.529Z,16.98
2018-09-06T23:22:56.425Z,16.97
2018-09-06T23:26:01.396Z,16.96
2018-09-06T23:29:06.393Z,16.97
2018-09-06T23:32:11.465Z,16.98
2018-09-06T23:35:16.405Z,16.94
2018-09-06T23:38:21.356Z,16.97
2018-09-06T23:41:26.383Z,16.93
2018-09-06T23:44:31.372Z,16.97
2018-09-06T23:47:36.201Z,17.01
2018-09-06T23:50:41.122Z,17.00
2018-09-06T23:53:46.012Z,17.03
2018-09-06T23:56:50.903Z,17.00
2018-09-06T23:59:55.833Z,16.98
